createdAt,value
2023-03-20T00:01:58.443Z,12.59
2023-03-20T00:04:26.001Z,12.57
2023-03-20T00:06:52.495Z,12.55
2023-03-20T00:09:18.926Z,12.52
2023-03-20T00:11:50.474Z,12.51
2023-03-20T00:14:19.181Z,12.52
2023-03-20T00:16:47.489Z,12.48
2023-03-20T00:19:19.586Z,12.40
2023-03-20T00:21:47.923Z,12.39
2023-03-20T00:24:15.321Z,12.38
2023-03-20T00:26:43.269Z,12.38
2023-03-20T00:29:22.757Z,12.36
2023-03-20T00:31:49.617Z,12.33
2023-03-20T00:34:17.678Z,12.30
2023-03-20T00:36:44.108Z,12.28
2023-03-20T00:39:10.850Z,12.28
2023-03-20T00:42:01.675Z,12.27
2023-03-20T00:44:34.658Z,12.26
2023-03-20T00:47:03.662Z,12.26
2023-03-20T00:49:33.264Z,12.26
2023-03-20T00:52:01.293Z,12.28
2023-03-20T00:54:28.137Z,12.28
2023-03-20T00:57:16.188Z,12.27
2023-03-20T00:59:51.935Z,12.23
2023-03-20T01:02:18.503Z,12.23
2023-03-20T01:04:44.960Z,12.21
2023-03-20T01:07:14.436Z,12.19
2023-03-20T01:09:41.650Z,12.19
2023-03-20T01:12:10.963Z,12.17
2023-03-20T01:14:37.377Z,12.18
2023-03-20T01:17:03.850Z,12.18
2023-03-20T01:19:30.363Z,12.20
2023-03-20T01:21:56.790Z,12.21
2023-03-20T01:24:23.236Z,12.22
2023-03-20T01:26:51.683Z,12.23
2023-03-20T01:29:24.020Z,12.23
2023-03-20T01:31:51.637Z,12.23
2023-03-20T01:34:18.689Z,12.27
2023-03-20T01:36:51.877Z,12.27
2023-03-20T01:39:21.623Z,12.27
2023-03-20T01:41:48.542Z,12.27
2023-03-20T01:44:23.769Z,12.27
2023-03-20T01:46:52.604Z,12.26
2023-03-20T01:49:18.923Z,12.26
2023-03-20T01:51:46.056Z,12.26
2023-03-20T01:54:19.135Z,12.26
2023-03-20T01:57:08.494Z,12.19
2023-03-20T01:59:34.819Z,12.14
2023-03-20T02:02:01.506Z,12.10
2023-03-20T02:04:34.747Z,12.04
2023-03-20T02:07:01.353Z,12.00
2023-03-20T02:09:27.809Z,11.95
2023-03-20T02:11:54.682Z,11.91
2023-03-20T02:14:22.228Z,11.93
2023-03-20T02:16:48.814Z,11.94
2023-03-20T02:19:23.920Z,11.93
2023-03-20T02:22:23.223Z,11.92
2023-03-20T02:24:54.969Z,11.90
2023-03-20T02:27:51.384Z,11.90
2023-03-20T02:30:43.058Z,11.93
2023-03-20T02:33:33.911Z,11.93
2023-03-20T02:36:33.694Z,11.95
2023-03-20T02:39:26.507Z,11.94
2023-03-20T02:42:13.814Z,11.93
2023-03-20T02:45:13.510Z,11.93
2023-03-20T02:47:51.322Z,11.95
2023-03-20T02:50:23.717Z,11.94
2023-03-20T02:53:10.546Z,11.95
2023-03-20T02:55:46.986Z,11.95
2023-03-20T02:58:26.603Z,11.97
2023-03-20T03:01:23.268Z,11.99
2023-03-20T03:04:22.390Z,11.98
2023-03-20T03:06:51.701Z,11.96
2023-03-20T03:09:33.433Z,11.97
2023-03-20T03:12:03.463Z,11.99
2023-03-20T03:14:36.006Z,12.01
2023-03-20T03:17:04.403Z,12.02
2023-03-20T03:19:32.084Z,12.04
2023-03-20T03:21:58.480Z,12.05
2023-03-20T03:24:41.436Z,12.07
2023-03-20T03:27:14.967Z,12.05
2023-03-20T03:29:42.304Z,12.02
2023-03-20T03:32:31.932Z,12.06
2023-03-20T03:34:59.099Z,12.08
2023-03-20T03:37:41.396Z,12.10
2023-03-20T03:40:33.861Z,12.10
2023-03-20T03:43:11.619Z,12.11
2023-03-20T03:45:55.792Z,12.10
2023-03-20T03:48:31.200Z,12.12
2023-03-20T03:51:01.601Z,12.10
2023-03-20T03:53:32.549Z,12.12
2023-03-20T03:56:02.364Z,12.09
2023-03-20T03:58:42.051Z,12.09
2023-03-20T04:01:13.512Z,12.06
2023-03-20T04:03:43.718Z,12.03
2023-03-20T04:06:12.442Z,11.95
2023-03-20T04:08:41.893Z,11.91
2023-03-20T04:11:19.376Z,11.81
2023-03-20T04:13:50.569Z,11.79
2023-03-20T04:16:18.314Z,11.75
2023-03-20T04:18:45.228Z,11.65
2023-03-20T04:21:12.124Z,11.58
2023-03-20T04:23:38.534Z,11.53
2023-03-20T04:26:06.016Z,11.48
2023-03-20T04:28:32.416Z,11.48
2023-03-20T04:31:00.831Z,11.40
2023-03-20T04:33:28.644Z,11.43
2023-03-20T04:35:56.630Z,11.44
2023-03-20T04:38:24.066Z,11.35
2023-03-20T04:40:50.588Z,11.36
2023-03-20T04:43:17.338Z,11.32
2023-03-20T04:45:43.794Z,11.30
2023-03-20T04:48:10.598Z,11.32
2023-03-20T04:50:37.080Z,11.30
2023-03-20T04:53:03.531Z,11.35
2023-03-20T04:55:29.935Z,11.31
2023-03-20T04:57:56.424Z,11.33
2023-03-20T05:00:22.938Z,11.28
2023-03-20T05:02:49.439Z,11.26
2023-03-20T05:05:15.888Z,11.24
2023-03-20T05:07:42.307Z,11.23
2023-03-20T05:10:09.122Z,11.26
2023-03-20T05:12:35.827Z,11.28
2023-03-20T05:15:02.248Z,11.30
2023-03-20T05:17:28.677Z,11.28
2023-03-20T05:19:55.092Z,11.28
2023-03-20T05:22:21.496Z,11.27
2023-03-20T05:24:47.976Z,11.30
2023-03-20T05:27:14.397Z,11.30
2023-03-20T05:29:40.972Z,11.32
2023-03-20T05:32:07.427Z,11.33
2023-03-20T05:34:33.866Z,11.33
2023-03-20T05:37:00.454Z,11.35
2023-03-20T05:39:26.872Z,11.35
2023-03-20T05:41:53.506Z,11.35
2023-03-20T05:44:19.918Z,11.38
2023-03-20T05:46:46.355Z,11.40
2023-03-20T05:49:12.763Z,11.44
2023-03-20T05:51:39.195Z,11.44
2023-03-20T05:54:05.746Z,11.46
2023-03-20T05:56:32.225Z,11.48
2023-03-20T05:58:58.664Z,11.50
2023-03-20T06:01:25.201Z,11.50
2023-03-20T06:03:51.760Z,11.52
2023-03-20T06:06:18.261Z,11.54
2023-03-20T06:08:44.661Z,11.57
2023-03-20T06:11:11.748Z,11.57
2023-03-20T06:13:38.174Z,11.61
2023-03-20T06:16:04.990Z,11.61
2023-03-20T06:18:31.614Z,11.65
2023-03-20T06:20:58.191Z,11.69
2023-03-20T06:23:24.647Z,11.72
2023-03-20T06:25:51.254Z,11.79
2023-03-20T06:28:17.676Z,11.83
2023-03-20T06:30:44.642Z,11.89
2023-03-20T06:33:11.367Z,11.91
2023-03-20T06:35:38.563Z,11.99
2023-03-20T06:38:05.365Z,12.05
2023-03-20T06:40:31.933Z,12.07
2023-03-20T06:42:58.401Z,12.09
2023-03-20T06:45:24.877Z,12.12
2023-03-20T06:47:51.398Z,12.13
2023-03-20T06:50:17.909Z,12.18
2023-03-20T06:52:44.894Z,12.21
2023-03-20T06:55:11.504Z,12.28
2023-03-20T06:57:38.668Z,12.35
2023-03-20T07:00:06.458Z,12.41
2023-03-20T07:02:33.410Z,12.43
2023-03-20T07:04:59.988Z,12.47
2023-03-20T07:07:27.220Z,12.50
2023-03-20T07:09:53.751Z,12.49
2023-03-20T07:12:20.421Z,12.48
2023-03-20T07:14:46.968Z,12.49
2023-03-20T07:17:13.564Z,12.48
2023-03-20T07:19:40.158Z,12.49
2023-03-20T07:22:08.596Z,12.46
2023-03-20T07:24:35.244Z,12.43
2023-03-20T07:27:01.792Z,12.42
2023-03-20T07:29:28.257Z,12.41
2023-03-20T07:31:54.834Z,12.42
2023-03-20T07:34:21.307Z,12.46
2023-03-20T07:36:47.809Z,12.43
2023-03-20T07:39:14.432Z,12.44
2023-03-20T07:41:40.929Z,12.46
2023-03-20T07:44:08.430Z,12.48
2023-03-20T07:46:34.961Z,12.49
2023-03-20T07:49:01.457Z,12.50
2023-03-20T07:51:27.933Z,12.55
2023-03-20T07:53:55.569Z,12.62
2023-03-20T07:56:22.377Z,12.68
2023-03-20T07:58:48.829Z,12.75
2023-03-20T08:01:15.395Z,12.86
2023-03-20T08:03:41.946Z,12.95
2023-03-20T08:06:09.760Z,12.98
2023-03-20T08:08:36.591Z,13.01
2023-03-20T08:11:03.103Z,13.01
2023-03-20T08:13:29.594Z,13.00
2023-03-20T08:15:56.043Z,12.99
2023-03-20T08:18:22.628Z,13.00
2023-03-20T08:20:50.285Z,13.01
2023-03-20T08:23:20.098Z,13.02
2023-03-20T08:25:50.663Z,13.04
2023-03-20T08:28:17.357Z,13.09
2023-03-20T08:30:44.150Z,13.13
2023-03-20T08:33:11.192Z,13.19
2023-03-20T08:35:38.043Z,13.26
2023-03-20T08:38:04.823Z,13.30
2023-03-20T08:40:31.436Z,13.31
2023-03-20T08:42:57.980Z,13.33
2023-03-20T08:45:26.220Z,13.25
2023-03-20T08:47:53.130Z,13.29
2023-03-20T08:50:19.700Z,13.29
2023-03-20T08:52:47.140Z,13.31
2023-03-20T08:55:15.870Z,13.32
2023-03-20T08:57:42.648Z,13.32
2023-03-20T09:00:12.106Z,13.29
2023-03-20T09:02:38.740Z,13.33
2023-03-20T09:05:06.075Z,13.36
2023-03-20T09:07:32.526Z,13.41
2023-03-20T09:09:59.047Z,13.46
2023-03-20T09:12:25.621Z,13.52
2023-03-20T09:14:52.148Z,13.57
2023-03-20T09:17:18.812Z,13.64
2023-03-20T09:19:45.479Z,13.76
2023-03-20T09:22:13.682Z,13.87
2023-03-20T09:24:40.176Z,13.91
2023-03-20T09:27:06.815Z,13.97
2023-03-20T09:29:33.270Z,14.01
2023-03-20T09:31:59.772Z,14.05
2023-03-20T09:34:26.255Z,14.06
2023-03-20T09:36:53.048Z,14.04
2023-03-20T09:39:19.533Z,14.01
2023-03-20T09:41:57.091Z,13.96
2023-03-20T09:44:59.618Z,13.90
2023-03-20T09:48:18.860Z,13.85
2023-03-20T09:51:22.980Z,13.81
2023-03-20T09:54:01.314Z,13.80
2023-03-20T09:56:29.974Z,13.81
2023-03-20T09:59:01.907Z,13.85
2023-03-20T10:01:39.051Z,13.82
2023-03-20T10:04:10.475Z,13.86
2023-03-20T10:06:37.196Z,13.92
2023-03-20T10:09:12.532Z,13.97
2023-03-20T10:11:41.934Z,14.02
2023-03-20T10:14:35.698Z,14.09
2023-03-20T10:17:31.602Z,14.14
2023-03-20T10:20:01.165Z,14.19
2023-03-20T10:22:36.652Z,14.26
2023-03-20T10:25:08.882Z,14.32
2023-03-20T10:27:41.211Z,14.35
2023-03-20T10:30:26.534Z,14.34
2023-03-20T10:33:11.843Z,14.33
2023-03-20T10:35:43.795Z,14.27
2023-03-20T10:38:37.575Z,14.18
2023-03-20T10:41:05.220Z,14.19
2023-03-20T10:43:38.186Z,14.22
2023-03-20T10:46:10.485Z,14.26
2023-03-20T10:48:39.452Z,14.35
2023-03-20T10:51:16.716Z,14.36
2023-03-20T10:53:47.700Z,14.45
2023-03-20T10:56:20.083Z,14.48
2023-03-20T10:58:48.581Z,14.63
2023-03-20T11:01:15.235Z,14.69
2023-03-20T11:03:41.981Z,14.79
2023-03-20T11:06:21.886Z,14.88
2023-03-20T11:08:51.343Z,14.87
2023-03-20T11:11:26.537Z,14.82
2023-03-20T11:13:53.054Z,14.80
2023-03-20T11:16:25.225Z,14.76
2023-03-20T11:18:53.933Z,14.68
2023-03-20T11:21:23.858Z,14.54
2023-03-20T11:23:51.376Z,14.44
2023-03-20T11:26:20.890Z,14.45
2023-03-20T11:28:50.618Z,14.46
2023-03-20T11:31:20.477Z,14.38
2023-03-20T11:33:52.804Z,14.33
2023-03-20T11:36:30.546Z,14.26
2023-03-20T11:39:16.814Z,14.17
2023-03-20T11:41:54.598Z,14.08
2023-03-20T11:44:33.910Z,14.07
2023-03-20T11:47:08.005Z,14.03
2023-03-20T11:49:47.766Z,14.02
2023-03-20T11:52:15.749Z,14.05
2023-03-20T11:54:50.744Z,14.06
2023-03-20T11:57:36.859Z,14.06
2023-03-20T12:00:18.118Z,14.04
2023-03-20T12:02:44.998Z,14.02
2023-03-20T12:05:18.948Z,14.04
2023-03-20T12:07:46.915Z,14.08
2023-03-20T12:10:14.375Z,14.12
2023-03-20T12:12:45.762Z,14.18
2023-03-20T12:15:27.056Z,14.18
2023-03-20T12:18:01.388Z,14.18
2023-03-20T12:20:44.768Z,14.22
2023-03-20T12:23:35.784Z,14.21
2023-03-20T12:26:54.619Z,14.16
2023-03-20T12:29:31.575Z,14.18
2023-03-20T12:32:07.149Z,14.27
2023-03-20T12:34:47.089Z,14.45
2023-03-20T12:37:14.303Z,14.49
2023-03-20T12:39:48.804Z,14.63
2023-03-20T12:42:37.097Z,14.67
2023-03-20T12:45:22.173Z,14.77
2023-03-20T12:47:57.762Z,14.89
2023-03-20T12:50:38.449Z,15.04
2023-03-20T12:53:35.766Z,15.05
2023-03-20T12:56:25.798Z,15.31
2023-03-20T12:59:08.300Z,15.36
2023-03-20T13:01:53.540Z,15.43
2023-03-20T13:04:36.454Z,15.43
2023-03-20T13:07:07.637Z,15.50
2023-03-20T13:09:52.184Z,15.55
2023-03-20T13:12:21.696Z,15.48
2023-03-20T13:15:01.170Z,15.54
2023-03-20T13:17:38.671Z,15.57
2023-03-20T13:20:23.339Z,15.61
2023-03-20T13:23:27.572Z,15.61
2023-03-20T13:26:14.109Z,15.64
2023-03-20T13:28:56.081Z,15.60
2023-03-20T13:31:43.786Z,15.58
2023-03-20T13:34:21.524Z,15.52
2023-03-20T13:37:16.083Z,15.55
2023-03-20T13:39:58.794Z,15.55
2023-03-20T13:42:29.908Z,15.57
2023-03-20T13:45:01.721Z,15.56
2023-03-20T13:47:28.929Z,15.51
2023-03-20T13:50:22.845Z,15.46
2023-03-20T13:52:55.428Z,15.40
2023-03-20T13:55:53.055Z,15.41
2023-03-20T13:58:32.524Z,15.42
2023-03-20T14:01:04.851Z,15.40
2023-03-20T14:03:39.057Z,15.36
2023-03-20T14:06:39.362Z,15.37
2023-03-20T14:09:25.320Z,15.29
2023-03-20T14:11:53.930Z,15.30
2023-03-20T14:14:46.197Z,15.25
2023-03-20T14:17:20.921Z,15.26
2023-03-20T14:19:48.010Z,15.27
2023-03-20T14:22:16.951Z,15.27
2023-03-20T14:24:48.749Z,15.27
2023-03-20T14:27:29.844Z,15.18
2023-03-20T14:30:31.461Z,15.16
2023-03-20T14:33:00.389Z,15.09
2023-03-20T14:35:28.369Z,15.09
2023-03-20T14:38:14.023Z,14.98
2023-03-20T14:40:49.563Z,14.97
2023-03-20T14:43:26.520Z,14.99
2023-03-20T14:46:02.308Z,14.91
2023-03-20T14:48:35.672Z,14.95
2023-03-20T14:51:20.461Z,14.94
2023-03-20T14:54:14.095Z,14.90
2023-03-20T14:56:40.593Z,14.87
2023-03-20T14:59:10.970Z,14.92
2023-03-20T15:01:46.554Z,14.96
2023-03-20T15:04:18.974Z,15.00
2023-03-20T15:06:58.078Z,14.98
2023-03-20T15:09:27.039Z,14.93
2023-03-20T15:11:53.969Z,14.88
2023-03-20T15:14:25.329Z,14.79
2023-03-20T15:16:58.622Z,14.64
2023-03-20T15:19:25.418Z,14.63
2023-03-20T15:21:53.675Z,14.58
2023-03-20T15:24:25.520Z,14.52
2023-03-20T15:26:58.310Z,14.52
2023-03-20T15:29:24.966Z,14.44
2023-03-20T15:32:12.522Z,14.40
2023-03-20T15:34:41.060Z,14.34
2023-03-20T15:37:07.558Z,14.35
2023-03-20T15:39:43.441Z,14.34
2023-03-20T15:42:13.000Z,14.33
2023-03-20T15:44:41.762Z,14.33
2023-03-20T15:47:11.265Z,14.36
2023-03-20T15:49:42.644Z,14.37
2023-03-20T15:52:31.278Z,14.37
2023-03-20T15:54:59.276Z,14.37
2023-03-20T15:57:33.608Z,14.35
2023-03-20T16:00:02.244Z,14.40
2023-03-20T16:02:30.250Z,14.40
2023-03-20T16:04:57.032Z,14.41
2023-03-20T16:07:28.274Z,14.43
2023-03-20T16:09:55.011Z,14.40
2023-03-20T16:12:21.572Z,14.38
2023-03-20T16:14:49.388Z,14.37
2023-03-20T16:17:17.612Z,14.36
2023-03-20T16:19:45.006Z,14.37
2023-03-20T16:22:21.958Z,14.35
2023-03-20T16:24:51.758Z,14.30
2023-03-20T16:27:24.608Z,14.29
2023-03-20T16:29:52.449Z,14.23
2023-03-20T16:32:32.854Z,14.21
2023-03-20T16:35:01.414Z,14.17
2023-03-20T16:37:30.866Z,14.08
2023-03-20T16:40:16.699Z,14.02
2023-03-20T16:42:43.910Z,13.96
2023-03-20T16:45:22.506Z,13.91
2023-03-20T16:47:49.255Z,13.82
2023-03-20T16:50:23.257Z,13.76
2023-03-20T16:52:52.258Z,13.77
2023-03-20T16:55:32.446Z,13.70
2023-03-20T16:58:00.901Z,13.63
2023-03-20T17:00:30.994Z,13.60
2023-03-20T17:03:05.701Z,13.57
2023-03-20T17:05:56.915Z,13.56
2023-03-20T17:08:29.108Z,13.54
2023-03-20T17:11:00.897Z,13.51
2023-03-20T17:13:27.316Z,13.49
2023-03-20T17:15:54.256Z,13.47
2023-03-20T17:18:20.689Z,13.46
2023-03-20T17:20:47.103Z,13.45
2023-03-20T17:23:20.580Z,13.42
2023-03-20T17:25:49.015Z,13.38
2023-03-20T17:28:24.342Z,13.34
2023-03-20T17:30:51.372Z,13.29
2023-03-20T17:33:20.786Z,13.26
2023-03-20T17:35:47.883Z,13.22
2023-03-20T17:38:22.107Z,13.19
2023-03-20T17:40:49.583Z,13.18
2023-03-20T17:43:17.437Z,13.12
2023-03-20T17:45:44.579Z,13.08
2023-03-20T17:48:17.245Z,13.05
2023-03-20T17:50:45.113Z,12.99
2023-03-20T17:53:17.683Z,12.97
2023-03-20T17:55:44.411Z,12.95
2023-03-20T17:58:15.824Z,12.91
2023-03-20T18:00:42.579Z,12.88
2023-03-20T18:03:09.040Z,12.84
2023-03-20T18:05:39.375Z,12.81
2023-03-20T18:08:11.018Z,12.75
2023-03-20T18:10:37.966Z,12.70
2023-03-20T18:13:04.616Z,12.61
2023-03-20T18:15:31.164Z,12.54
2023-03-20T18:17:57.745Z,12.53
2023-03-20T18:20:30.886Z,12.51
2023-03-20T18:22:57.412Z,12.50
2023-03-20T18:25:25.935Z,12.49
2023-03-20T18:27:53.598Z,12.43
2023-03-20T18:30:23.013Z,12.37
2023-03-20T18:32:49.561Z,12.34
2023-03-20T18:35:16.397Z,12.35
2023-03-20T18:37:43.195Z,12.29
2023-03-20T18:40:26.166Z,12.25
2023-03-20T18:42:54.072Z,12.18
2023-03-20T18:45:21.813Z,12.14
2023-03-20T18:47:48.661Z,12.15
2023-03-20T18:50:19.785Z,12.17
2023-03-20T18:52:46.667Z,12.20
2023-03-20T18:55:13.127Z,12.20
2023-03-20T18:57:43.057Z,12.19
2023-03-20T19:00:39.932Z,12.19
2023-03-20T19:03:08.311Z,12.16
2023-03-20T19:05:36.022Z,12.16
2023-03-20T19:08:03.672Z,12.17
2023-03-20T19:10:39.296Z,12.19
2023-03-20T19:13:07.685Z,12.16
2023-03-20T19:15:36.375Z,12.15
2023-03-20T19:18:06.089Z,12.14
2023-03-20T19:20:39.890Z,12.14
2023-03-20T19:23:08.696Z,12.15
2023-03-20T19:25:36.314Z,12.15
2023-03-20T19:28:03.460Z,12.16
2023-03-20T19:30:40.702Z,12.16
2023-03-20T19:33:07.766Z,12.14
2023-03-20T19:38:22.181Z,12.12
2023-03-20T19:40:53.215Z,12.11
2023-03-20T19:43:23.282Z,12.10
2023-03-20T19:45:55.994Z,12.09
2023-03-20T19:48:27.207Z,12.08
2023-03-20T19:50:54.174Z,12.06
2023-03-20T19:53:27.961Z,12.03
2023-03-20T19:55:55.591Z,11.99
2023-03-20T19:58:22.454Z,11.97
2023-03-20T20:00:59.195Z,11.95
2023-03-20T20:03:26.636Z,11.91
2023-03-20T20:05:53.541Z,11.85
2023-03-20T20:08:30.037Z,11.82
2023-03-20T20:11:07.145Z,11.78
2023-03-20T20:13:43.854Z,11.77
2023-03-20T20:16:21.202Z,11.75
2023-03-20T20:18:49.788Z,11.75
2023-03-20T20:24:02.984Z,11.70
2023-03-20T20:26:31.384Z,11.71
2023-03-20T20:29:01.762Z,11.70
2023-03-20T20:31:31.841Z,11.70
2023-03-20T20:34:25.235Z,11.67
2023-03-20T20:39:31.709Z,11.64
2023-03-20T20:41:58.264Z,11.62
2023-03-20T20:44:24.804Z,11.62
2023-03-20T20:46:51.713Z,11.59
2023-03-20T20:49:20.271Z,11.55
2023-03-20T20:51:47.727Z,11.57
2023-03-20T20:54:14.668Z,11.57
2023-03-20T20:56:41.437Z,11.55
2023-03-20T20:59:08.043Z,11.53
2023-03-20T21:01:34.774Z,11.56
2023-03-20T21:04:02.346Z,11.56
2023-03-20T21:06:54.212Z,11.56
2023-03-20T21:09:15.419Z,11.55
2023-03-20T21:11:41.992Z,11.52
2023-03-20T21:14:08.882Z,11.53
2023-03-20T21:16:35.431Z,11.52
2023-03-20T21:19:07.670Z,11.49
2023-03-20T21:21:35.734Z,11.47
2023-03-20T21:24:02.520Z,11.47
2023-03-20T21:26:29.184Z,11.47
2023-03-20T21:28:55.721Z,11.44
2023-03-20T21:31:27.931Z,11.40
2023-03-20T21:33:56.607Z,11.40
2023-03-20T21:36:23.774Z,11.39
2023-03-20T21:39:08.651Z,11.44
2023-03-20T21:41:37.950Z,11.38
2023-03-20T21:44:07.666Z,11.38
2023-03-20T21:55:40.690Z,11.40
2023-03-20T22:03:40.000Z,11.36
2023-03-20T22:15:11.898Z,11.31
2023-03-20T22:20:42.247Z,11.27
2023-03-20T22:26:20.997Z,11.30
2023-03-20T22:31:50.796Z,11.26
2023-03-20T22:40:27.234Z,11.24
2023-03-20T22:42:49.616Z,11.21
2023-03-20T22:45:05.577Z,11.20
2023-03-20T22:47:32.403Z,11.16
2023-03-20T22:49:58.946Z,11.15
2023-03-20T22:52:38.003Z,11.17
2023-03-20T22:55:12.083Z,11.17
2023-03-20T22:57:45.693Z,11.14
2023-03-20T23:00:17.783Z,11.13
2023-03-20T23:02:44.730Z,11.13
2023-03-20T23:05:11.831Z,11.11
2023-03-20T23:07:38.658Z,11.10
2023-03-20T23:10:06.495Z,11.11
2023-03-20T23:12:33.434Z,11.09
2023-03-20T23:15:00.380Z,11.08
2023-03-20T23:17:27.201Z,11.07
2023-03-20T23:20:05.311Z,11.07
2023-03-20T23:22:38.323Z,11.07
2023-03-20T23:25:13.387Z,11.07
2023-03-20T23:27:44.995Z,11.08
2023-03-20T23:30:12.065Z,11.06
2023-03-20T23:32:39.815Z,11.05
2023-03-20T23:35:07.687Z,11.03
2023-03-20T23:37:34.921Z,11.02
2023-03-20T23:40:01.427Z,11.00
2023-03-20T23:42:30.931Z,11.01
2023-03-20T23:45:04.341Z,11.02
2023-03-20T23:47:44.880Z,11.02
2023-03-20T23:50:20.682Z,11.02
2023-03-20T23:53:01.054Z,11.02
2023-03-20T23:55:30.515Z,10.96
2023-03-20T23:57:57.073Z,10.94
